Timeline UpdatesTrip UpdatesNews PostsPvt Posts♥♥Travel TipsAdmin PostsConv PostsFollowed PostsChat RequestsBlog PostsPNR Posts

Disclaimer
Search
 
 
Sat Oct 25, 2014 11:07:25 ISTHomeTrainsΣChainsAtlasPNRForumGalleryNewsFAQTripsMembersLoginFeedback
No Recent News for this Train
Other Trains in the News **new
Latest...
http://indiarailinfo.com/blog/post/1101915.
Sun May 18, 2014 (08:29PM)
⇐ Return Journey: Train# 14660

14659/Malani Express

Time-Table HAS CHANGED.
Sep 03 2014 (11:21AM)
Change Departure Station:
Change Arrival Station:
Post a Train Travel TipPost a Train Travel Tip **new
Post a Comment/Question/Picture/VideoPost a Comment/Question/Picture/Video
Pantry/Catering
✕ NO Pantry Car
✓ Catering Avbl
Doon's catering...provides veg byriani @ Rs. 60 and veg thali...
Read more...
@ Rs. 120. Also snacks, cold drinks, chips, water are available with them in AC coaches mainly.
Loco/Rake Reversals
JU/Jodhpur Junction (5); POK/Pokaran (2);
RSA - Rake Sharing
14646/14645/14659/14660;
Rake/Coach Composition
Rake1: Loco-slr-gen-s8-s7-s6-b3-a2-gen-slr-slr-gen-s5-s4-b2-b1-a1-ha1-s3-s2-s1-gen-gen-slr; ; Rake2: Loco-SLR-A2,B1,S8-S7-S6-Gen-Gen-SLR-SLR-S5-S4-S3-S2-S1-A1-B2-B3-HA1-Gen-Gen-Gen-SLR;first 9 coaches are slip coaches to barmer.
Loco
BGKT WDP 4D (Upto JU), RTM WDM 3A (JU-JSM)
News    PNR    Forum    Time-Table    Availability    Fare Chart    Map    Arr/Dep History    Trips    Gallery    ΣChains    X/O    Timeline    
Travel Time: 1h 31m    0 halts    Distance: 62 km    Avg Speed: 40 km/hr
Type: Mail/Express
Zone: NR/Northern
Departs @ 09:44 (Avg 1h 15m late)
Platform# 1
SMTWTFS
Shri Bhadriya Lathi/SBLT 
Arrives @ 11:15 (Avg 29m late)
Platform# 1
SMTWTFS
Jaisalmer/JSM 

0 halts. 2 intermediate Stations between Shri Bhadriya Lathi and Jaisalmer

Hide intermediate Stations  Show Old Time-Table

#TrkCodeStation NameX/OArrivesAvgDepartsAvgHaltPFDay#KmSpeedElevZoneAddress
1/==/DLIOld Delhi Junction (16)  -17:30 17:35+391-856.720219mNRNear Chandni Chowk Metro Station, Delhi NCT
1.1/==/DKZDelhi KishanGanj (2)  17:43-17:43-  1-853.8 20220mNRSarai Rohilla, Delhi NCT
2/==/DEEDelhi Sarai Rohilla (5)  17:48+917:50+92m11-852.339226mNRNew Rohtak road, Delhi NCT
2.1/==/DBSIDayabasti (2)  17:52-17:52-  1-851.0 39225mNRZakhira, Delhi NCT
2.2/==/PTNRPatel Nagar (7)  17:55-17:55-  1-849.2 39222mNRPatel Nagar, Delhi NCT
2.3/==|KRTNKirtinagar (2)  17:56-17:56-  1-848.4 39220mNRKirti Nagar, Delhi NCT
3|==|DECDelhi Cantt. (5)  18:05+1218:07+132m11-842.632217mNRDelhi, Delhi NCT
3.1|==|NSNNasirpur Halt (1)  18:10-18:10-  1-841.2 32220mNRnasirpur, Uttar Pradesh
4|==|PMPalam (3)  18:14+1318:16+132m21-838.957222mNRNew Delhi - 110010, Delhi NCT
4.1|==|SMDPShahabad Mohammadpur (2)  18:20-18:20-  1-835.3 57218mNRDwarka, Delhi NCT
4.2|==|BWSNBijwasan (3)X  18:23-18:23-  1-832.1 57222mNRBijwasan, Delhi NCT
4.3|==|PLVRPalam Vihar Halt  18:26-18:26-  1-829.2 57218mNRGurgaon, Haryana
5|==|GGNGurgaon (3)X  18:30+1418:32+142m--1-825.566217mNRGurgaon, Haryana
5.1|==|BDXTBasai Dhankot (1)  18:36-18:36-  1-821.5 66213mNRGurgaon, Haryana
6|==|GHHGarhi Harsaru (3)  18:41+1518:43+152m--1-815.679220mNRGurgaon, Haryana
6.1|==|PTPatli (3)  18:49-18:49-  1-807.4 79226mNRGurgaon, Haryana
6.2|==|TNJRTaj Nagar (2)  18:52-18:52-  1-804.4 79231mNRGurgaon, Haryana
6.3|==|JSKAJataula Samphka (1)  18:54-18:54-  1-801.1 79226mNRHailley Mandi, Haryana
7|==|PTRDPataudi Road  18:58+1619:00+162m--1-795.967227mNRHailley Mandi, Haryana
7.1|==|IHPInchhapuri (1)X  19:04-19:04-  1-791.0 67231mNRGurgaon, Haryana
8|==|KIPKhalilpur  19:10+1619:12+172m--1-784.720235mNRState Highway 26, Haryana
8.1|==|KWMDKumbhawas Mundhalia Dabri (1)  19:23-19:23-  1-780.8 20237mNRKumbhawas, Haryana
9|==%RERewari Junction (8)  19:43+1919:45+202m11-774.265245mNWRRewari, Haryana
9.1%==%AMRIAnaj Mandi (2)X  19:47-19:47-  1-772.4 65248mNWRRampura, Haryana
9.2%==%KNGTKarnawasX  19:53-19:53-  1-765.8 65257mNWRKarnawas, Haryana
10%==%BWLBawalX  19:59+2720:01+262m--1-758.987266mNWRBawal, Haryana
10.1%==%MJNLMajri Nangal  20:05-20:05-  1-752.5 87273mNWRState Highway 52, Rajasthan
10.2%==%AIAAjaraka  20:10-20:10-  1-746.0 87280mNWRAjaraka, Rajasthan
10.3%==%KNARKhanpur AhirX  20:14-20:14-  1-739.8 87284mNWRMDR 61, Rajasthan
11%==%HSIHarsauli  20:18+3020:20+292m--1-734.352287mNWRHarsoli, Rajasthan
12%==%KRHKhairthal (2)  20:29+3020:31+302m21-726.678305mNWRKhairthal, Rajasthan
12.1%==%GALGhatla  20:37-20:37-  1-719.4 78308mNWRState Highway 14, Rajasthan
12.2%==%PSLParisalX  20:42-20:42-  1-713.0 78289mNWRKhairthal, Rajasthan
13%=-|AWRAlwar Junction (2)  20:52+3320:55+333m21-699.488267mNWRAlwar, Rajasthan
13.1|--|MWWMahwa (1)  21:01-21:01-  1-690.8 88264mNWRAlwar, Rajasthan
14|--|MKHMalakhera (1)  21:08+3821:10+382m11-680.273265mNWRMala Khera, Rajasthan
14.1|--|DGWDhigawara (1)X  21:18-21:18-  1-670.1 73278mNWRBaswa, Rajasthan
15|--|RHGRajgarh (2)  21:24+4521:26+462m--1-663.245303mNWRRajgarh, Rajasthan
15.1|--|SRRGSurergoth (1)X  21:34-21:34-  1-657.6 45308mNWRState Highway 25, Rajasthan
16|--|BUBaswa (2)X  21:42+4421:44+452m11-651.358291mNWRAlwar, Rajasthan
16.1|--|GLNAGulana (1)  21:50-21:50-  1-645.7 58279mNWRState Highway 25, Rajasthan
17|-=|BKIBandikui Junction (6)  21:57+4221:59+432m--1-638.886283mNWRBandikui, Rajasthan
17.1|==|ARNAArnia (2)  22:03-22:03-  1-632.7 86288mNWRBandikui, Rajasthan
17.2|==|KVGMKolvagram (2)  22:07-22:07-  1-627.3 86294mNWRBandikui, Rajasthan
17.3|==|BAKBhan Kari (2)  22:12-22:12-  1-620.7 86301mNWRDausa, Rajasthan
18|==|DODausa (2)  22:19+4922:21+492m11-610.070333mNWRDausa, Rajasthan
18.1|==|BNDNBhandana (2)X  22:27-22:27-  1-602.7 70329mNWRBanskho, Rajasthan
18.2|==|JWJatwara (2)  22:31-22:31-  1-597.9 70329mNWRDausa, Rajasthan
18.3|==|BSKOBanskho (2)  22:38-22:38-  1-590.5 70362mNWRJaipur, Rajasthan
18.4|==|JHIRJhir (2)X  22:40-22:40-  1-587.9 70377mNWRKanauta, Rajasthan
18.5|==|BAIBassi (3)  22:46-22:46-  1-581.0 70352mNWRJaipur, Rajasthan
18.6|==|KUTKanauta (2)  22:54-22:54-  1-571.8 70350mNWRJaipur, Rajasthan
18.7|==|KWPKhatipura (2)  22:59-22:59-  1-565.3 70364mNWRGandhinagar, Rajasthan
18.8|==|GTJTGetor Jagatpura (2)  23:04-23:04-  1-559.4 70389mNWRJaipur, Rajasthan
19|==|GADJJaipur Gandhinagar (2)X  23:09+4823:11+492m--1-553.914426mNWRJaipur, Rajasthan
20|==|JPJaipur Junction (7)X  23:35+3923:45+4110m41-548.585434mNWRJaipur, Rajasthan
20.1|==|KKUKanakpura  23:51-23:51-  1-539.6 85429mNWRJaipur, Rajasthan
20.2|==|BDYKBindayakaX  23:55-23:55-  1-534.5 85411mNWRJaipur, Rajasthan
20.3|==|DNKDhanakya  23:58-23:58-  1-529.9 85418mNWRJaipur, Rajasthan
20.4|==|SHNXSheo Singh Pura  00:01-00:01-  2-526.1 85411mNWRJaipur, Rajasthan
20.5|==|BOBSBobasX  00:06-00:06-  2-519.2 85396mNWRJaipur, Rajasthan
21|==|JOBAsalpur Jobner  00:11+4400:13+432m--2-511.824379mNWRJaipur, Rajasthan
21.1|==|DHNDDhinda  00:27-00:27-  2-506.1 24386mNWRMDR 59, Rajasthan
21.2|==|HDAHirnodaX  00:37-00:37-  2-502.1 24400mNWRJaipur, Rajasthan
22|==|FLPhulera Junction (5)  00:58+1701:00+192m22-493.480386mNWRPhulera, Rajasthan
22.1|--|SBRSambhar Lake  01:05-01:05-  2-486.2 80368mNWRSambhar, Rajasthan
22.2|--|GAGudha (1)  01:11-01:11-  2-478.6 80365mNWRPhulera, Rajasthan
22.3|--|GVMRGovindi Marwar  01:19-01:19-  2-467.9 80373mNWRSambhar Lake, Rajasthan
23|--|NACNawa City  01:26+3401:28+342m--2-458.669390mNWRNawa, Rajasthan
23.1|--|NYKNaya Kharadia  01:34-01:34-  2-452.0 69375mNWRMakrana, Rajasthan
23.2|--|THMRThathana Mithri  01:37-01:37-  2-447.8 69388mNWRNawa City, Rajasthan
23.3|--|KMNCKuchaman City  01:42-01:42-  2-443.0 69404mNWRPalari, Rajasthan
24|--|MKNMakrana Junction (2)X  01:54+3601:56+372m--2-428.870423mNWRMakrana, Rajasthan
24.1|--|BOWBorawar  02:00-02:00-  2-423.7 70403mNWRBesrol, Rajasthan
24.2|--|BSRLBesroli  02:11-02:11-  2-411.8 70378mNWRNagaur, Rajasthan
24.3|--|GCHGachhipura  02:20-02:20-  2-400.5 70362mNWRNagaur, Rajasthan
25|--|DNADegana Junction (4)X  02:33+4002:36+433m--2-385.445339mNWRDegana, Rajasthan
25.1|--|JACNJalsu NanakX  02:46-02:46-  2-378.1 45331mNWRREN, Rajasthan
25.2|--|JACJalsu  02:53-02:53-  2-372.5 45321mNWRNagaur, Rajasthan
25.3|--|RENRen  03:12-03:12-  2-358.8 45307mNWRNagaur, Rajasthan
25.4|--|KQWKheduli (1)X  03:14-03:14-  2-356.8 45307mNWRRen, Rajasthan
26|--|MTDMerta Road Junction (4)X  03:35+2203:40+245m--2-341.481322mNWRPhalodi, Rajasthan
26.1|--|JOMJogi Magra (1)  03:48-03:48-  2-331.0 81335mNWRNagaur, Rajasthan
27|--|GOTNGotan (3)  03:55+2803:57+282m--2-321.292323mNWRGotan, Rajasthan
27.1|--|KXGKharia Khangarh  04:02-04:02-  2-314.1 92310mNWRKharia Khangar, Rajasthan
27.2|--|UMEDUmed  04:08-04:08-  2-303.8 92308mNWRJodhpur, Rajasthan
27.3|--|SWFSathin Road  04:15-04:15-  2-293.5 92284mNWRUMED, Rajasthan
27.4|--|PPRPipar Road Junction  04:21-04:21-  2-285.0 92272mNWRState Highway 58, Rajasthan
27.5|--|KSWKheri Salwa  04:25-04:25-  2-278.5 92269mNWRJajiwal, Rajasthan
27.6|--|AASAsranada  04:31-04:31-  2-269.4 92251mNWRState Highway 58, Rajasthan
27.7|--|JWLJajiwal  04:37-04:37-  2-260.5 92228mNWRJodhpur, Rajasthan
27.8|--|BNOBanarX  04:42-04:42-  2-252.3 92213mNWRBanar, Rajasthan
27.9|--|JUCTJodhpur Cantt. (1)  04:46-04:46-  2-246.2 92220mNWRJodhpur, Rajasthan
28|--|RKBRaikabagh Palace Junction (2) new halt!!  04:50-04:52-2m--2-240.411237mNWRJodhpur, Rajasthan
29|-=|JUJodhpur Junction (5)X05:05+3305:30+4525m--2-238.158241mNWRJodhpur, Rajasthan
29.1|--|RKBRaikabagh Palace Junction (2)  05:32-05:32-  2-235.7 58237mNWRJodhpur, Rajasthan
29.2|--|MMCMahamandir  05:35-05:35-  2-232.9 58249mNWRJodhpur, Rajasthan
29.3|--|MDBMandor (1)X  05:40-05:40-  2-228.4 58244mNWRJodhpur, Rajasthan
29.4|--|MLHManaklao  05:59-05:59-  2-210.5 58247mNWRState Highway 61, Rajasthan
30|--|MMYMarwar Mathanya  06:04+1:0506:06+1:072m--2-205.463252mNWRMathania, Rajasthan
31|--|TIWTivari new halt!!06:16+1:0906:17+1:101m--2-194.885273mNWRTinwari, Rajasthan
32|--|OSNOsiyan  06:31 06:32+1:1506:33 06:34+1:152m--2-173.680329mNWROsiyan, Rajasthan
32.1|--|BKCBhikamkor  06:45-06:45-  2-158.4 80323mNWRJodhpur, Rajasthan
32.2|--|SRKSamrau  06:52-06:52-  2-149.1 80320mNWRState Highway 61, Rajasthan
33|--|MWTMarwar Lohwat  07:06 07:07+1:2007:08 07:09+1:202m12-129.871289mNWRJodhpur, Rajasthan
33.1|--|STSNShaitan Singh Nagar  07:22-07:22-  2-115.0 71263mNWRState Highway 61, Rajasthan
34|--|PLCJPhalodi Junction (3)  07:33+1:1907:38+1:205m12-101.679232mNWRPhalodi, Rajasthan
34.1|--|PLCPhalodi Junction (3)  07:38-07:38-  2-101.4 79225mNWRPhalodi, Rajasthan
34.2|--|MBTMarwar Birthi  07:46-07:46-  2-90.9 79248mNWRNational Highway 15, Rajasthan
34.3|--|MKHRMarwar Khara  07:58-07:58-  2-75.3 79257mNWRJodhpur, Rajasthan
35|--|RDRARamdevraX  08:14+1:2608:16+1:332m12-54.122226mNWRRamdevra, Rajasthan
36|--|POKPokaran (2)08:35 08:43+1:2208:55 09:08+1:1520 25m12-44.163244mNWRNational Highway 15, Rajasthan
37|--|AQGAshapura Gomat  08:59 09:12+1:1609:01 09:14+1:162m12-39.985245mNWRNational Highway 15, Rajasthan
37.1|--|OCHOdhaniya Chacha  09:27-09:27-  2-21.6 85224mNWRNational Highway 15, Rajasthan
38|--|SBLTShri Bhadriya Lathi (1)»  09:31 09:42+1:1509:33 09:44+1:152m120.041194mNWRLathi, Rajasthan
38.1|--|JCHJetha ChandanX  10:13-10:13-  220.0 41181mNWRChandan, Rajasthan
38.2|--|THMThalyat Hamira  10:48-10:48-  243.3 41201mNWRHamira, Rajasthan
39|--|JSMJaisalmer (3)•  11:15+29-1262.0-224mNWRJaisalmer, Rajasthan
Scroll to Top
Scroll to Bottom